createdAt,value
2018-11-06T00:00:15.540Z,12.70
2018-11-06T00:05:15.540Z,12.70
2018-11-06T00:10:14.172Z,12.70
2018-11-06T00:15:12.804Z,12.60
2018-11-06T00:20:12.676Z,12.70
2018-11-06T00:25:12.438Z,12.60
2018-11-06T00:30:12.431Z,12.60
2018-11-06T00:35:15.013Z,12.50
2018-11-06T00:40:13.820Z,12.50
2018-11-06T00:45:13.853Z,12.50
2018-11-06T00:50:13.435Z,12.40
2018-11-06T00:55:12.179Z,12.40
2018-11-06T01:00:13.131Z,12.30
2018-11-06T01:05:12.655Z,12.30
2018-11-06T01:10:11.564Z,12.20
2018-11-06T01:15:14.767Z,12.20
2018-11-06T01:20:15.016Z,12.20
2018-11-06T01:25:13.924Z,12.30
2018-11-06T01:30:15.702Z,12.30
2018-11-06T01:35:14.915Z,12.30
2018-11-06T01:40:14.645Z,12.30
2018-11-06T01:45:14.349Z,12.30
2018-11-06T01:50:15.090Z,12.30
2018-11-06T01:55:13.711Z,12.30
2018-11-06T02:00:14.552Z,12.20
2018-11-06T02:05:14.378Z,12.20
2018-11-06T02:10:13.907Z,12.20
2018-11-06T02:15:12.677Z,12.10
2018-11-06T02:20:12.127Z,12.20
2018-11-06T02:25:11.230Z,12.10
2018-11-06T02:30:11.688Z,12.10
2018-11-06T02:35:10.368Z,12.10
2018-11-06T02:40:10.626Z,12.10
2018-11-06T02:45:10.044Z,12.10
2018-11-06T02:50:09.359Z,12.00
2018-11-06T02:55:08.659Z,12.00
2018-11-06T03:00:10.543Z,11.90
2018-11-06T03:05:09.968Z,11.80
2018-11-06T03:10:09.539Z,11.90
2018-11-06T03:15:08.912Z,11.90
2018-11-06T03:20:08.226Z,11.80
2018-11-06T03:25:07.243Z,11.80
2018-11-06T03:30:08.205Z,11.80
2018-11-06T03:35:07.085Z,11.70
2018-11-06T03:40:07.123Z,11.60
2018-11-06T03:45:06.254Z,11.50
2018-11-06T03:50:04.906Z,11.40
2018-11-06T03:55:03.525Z,11.40
2018-11-06T04:00:02.156Z,11.40
2018-11-06T04:05:00.763Z,11.30
2018-11-06T04:09:59.447Z,11.30
2018-11-06T04:14:58.059Z,11.10
2018-11-06T04:19:56.671Z,11.00
2018-11-06T04:24:55.347Z,11.10
2018-11-06T04:29:54.071Z,11.00
2018-11-06T04:34:52.653Z,10.80
2018-11-06T04:39:51.280Z,10.80
2018-11-06T04:44:50.069Z,10.70
2018-11-06T04:49:48.693Z,10.70
2018-11-06T04:54:47.324Z,10.70
2018-11-06T04:59:45.975Z,10.70
2018-11-06T05:04:44.596Z,10.70
2018-11-06T05:09:43.343Z,10.70
2018-11-06T05:14:42.043Z,10.70
2018-11-06T05:19:40.865Z,10.60
2018-11-06T05:24:39.491Z,10.60
2018-11-06T05:29:38.148Z,10.50
2018-11-06T05:34:36.799Z,10.40
2018-11-06T05:39:40.809Z,10.40
2018-11-06T05:44:39.386Z,10.40
2018-11-06T05:49:38.079Z,10.40
2018-11-06T05:54:36.786Z,10.30
2018-11-06T05:59:35.634Z,10.40
2018-11-06T06:04:34.291Z,10.40
2018-11-06T06:09:32.941Z,10.30
2018-11-06T06:14:31.688Z,10.30
2018-11-06T06:19:30.345Z,10.40
2018-11-06T06:24:29.195Z,10.40
2018-11-06T06:29:30.645Z,10.30
2018-11-06T06:34:30.000Z,10.40
2018-11-06T06:39:28.607Z,10.40
2018-11-06T06:44:27.227Z,10.40
2018-11-06T06:49:25.958Z,10.50
2018-11-06T06:54:24.792Z,10.50
2018-11-06T06:59:23.305Z,10.50
2018-11-06T07:04:21.998Z,10.60
2018-11-06T07:09:21.461Z,10.70
2018-11-06T07:14:20.092Z,10.70
2018-11-06T07:19:18.719Z,10.70
2018-11-06T07:24:17.344Z,10.80
2018-11-06T07:29:15.962Z,10.90
2018-11-06T07:34:14.575Z,11.10
2018-11-06T07:39:13.434Z,11.30
2018-11-06T07:44:12.091Z,11.40
2018-11-06T07:49:10.707Z,11.80
2018-11-06T07:54:09.414Z,11.80
2018-11-06T07:59:08.423Z,11.70
2018-11-06T08:04:07.098Z,11.80
2018-11-06T08:09:10.099Z,11.90
2018-11-06T08:14:08.927Z,12.10
2018-11-06T08:19:07.590Z,12.20
2018-11-06T08:24:06.738Z,12.30
2018-11-06T08:29:05.452Z,12.70
2018-11-06T08:34:04.077Z,13.10
2018-11-06T08:39:02.702Z,13.40
2018-11-06T08:44:01.509Z,13.60
2018-11-06T08:49:00.147Z,14.50
2018-11-06T08:53:58.796Z,14.70
2018-11-06T08:58:57.419Z,14.30
2018-11-06T09:03:56.051Z,14.40
2018-11-06T09:08:54.740Z,15.00
2018-11-06T09:13:53.290Z,15.70
2018-11-06T09:18:51.959Z,15.30
2018-11-06T09:23:50.591Z,15.20
2018-11-06T09:28:49.255Z,15.40
2018-11-06T09:33:47.966Z,15.90
2018-11-06T09:38:46.651Z,16.80
2018-11-06T09:43:45.390Z,16.80
2018-11-06T09:48:44.030Z,18.30
2018-11-06T09:53:42.623Z,19.00
2018-11-06T09:58:41.295Z,20.80
2018-11-06T10:03:40.104Z,21.20
2018-11-06T10:08:38.892Z,21.90
2018-11-06T10:13:37.765Z,22.80
2018-11-06T10:18:36.396Z,22.90
2018-11-06T10:23:35.074Z,21.40
2018-11-06T10:28:33.733Z,22.20
2018-11-06T10:33:32.380Z,23.20
2018-11-06T10:38:31.025Z,24.10
2018-11-06T10:43:29.656Z,22.30
2018-11-06T10:48:28.613Z,22.00
2018-11-06T10:53:27.339Z,22.30
2018-11-06T10:58:26.151Z,22.40
2018-11-06T11:04:32.188Z,22.50
2018-11-06T11:09:30.804Z,23.50
2018-11-06T11:14:29.429Z,24.30
2018-11-06T11:19:28.052Z,24.70
2018-11-06T11:24:26.784Z,26.30
2018-11-06T11:29:25.486Z,28.20
2018-11-06T11:34:24.160Z,29.10
2018-11-06T11:39:22.880Z,29.20
2018-11-06T11:44:21.574Z,30.00
2018-11-06T11:49:20.905Z,30.40
2018-11-06T11:54:20.637Z,30.90
2018-11-06T11:59:19.500Z,30.90
2018-11-06T12:04:19.854Z,30.60
2018-11-06T12:09:18.651Z,30.40
2018-11-06T12:14:17.272Z,29.70
2018-11-06T12:19:15.891Z,28.30
2018-11-06T12:24:14.585Z,28.80
2018-11-06T12:29:13.131Z,27.60
2018-11-06T12:34:11.755Z,24.80
2018-11-06T12:39:11.509Z,22.90
2018-11-06T12:44:10.200Z,21.90
2018-11-06T12:49:08.831Z,21.30
2018-11-06T12:54:07.471Z,21.90
2018-11-06T12:59:06.300Z,21.50
2018-11-06T13:04:05.136Z,20.50
2018-11-06T13:09:04.846Z,20.00
2018-11-06T13:14:03.480Z,19.60
2018-11-06T13:19:02.112Z,19.40
2018-11-06T13:24:00.768Z,19.20
2018-11-06T13:28:59.468Z,19.20
2018-11-06T13:33:58.091Z,19.00
2018-11-06T13:38:56.783Z,18.80
2018-11-06T13:43:55.657Z,18.80
2018-11-06T13:48:54.183Z,18.70
2018-11-06T13:53:53.039Z,18.60
2018-11-06T13:58:51.729Z,18.60
2018-11-06T14:03:50.487Z,18.50
2018-11-06T14:08:49.254Z,18.60
2018-11-06T14:13:48.105Z,18.60
2018-11-06T14:18:46.810Z,18.30
2018-11-06T14:23:45.908Z,18.20
2018-11-06T14:28:45.552Z,18.20
2018-11-06T14:33:44.768Z,18.10
2018-11-06T14:38:43.746Z,18.10
2018-11-06T14:43:42.838Z,18.00
2018-11-06T14:48:41.791Z,18.00
2018-11-06T14:53:40.803Z,18.00
2018-11-06T14:58:39.560Z,17.90
2018-11-06T15:03:38.179Z,17.60
2018-11-06T15:08:36.868Z,17.60
2018-11-06T15:13:35.894Z,17.50
2018-11-06T15:18:34.719Z,17.30
2018-11-06T15:23:33.611Z,17.20
2018-11-06T15:28:32.556Z,17.10
2018-11-06T15:33:31.346Z,17.00
2018-11-06T15:38:29.960Z,16.90
2018-11-06T15:43:28.580Z,16.80
2018-11-06T15:48:28.488Z,16.70
2018-11-06T15:53:27.110Z,16.60
2018-11-06T15:58:25.777Z,16.50
2018-11-06T16:03:24.614Z,16.30
2018-11-06T16:08:23.520Z,16.30
2018-11-06T16:13:22.206Z,16.10
2018-11-06T16:18:20.899Z,16.00
2018-11-06T16:23:19.571Z,15.90
2018-11-06T16:28:18.203Z,15.80
2018-11-06T16:33:16.814Z,15.80
2018-11-06T16:38:15.431Z,15.70
2018-11-06T16:43:14.060Z,15.70
2018-11-06T16:48:14.337Z,15.70
2018-11-06T16:53:13.075Z,15.60
2018-11-06T16:58:11.780Z,15.60
2018-11-06T17:03:10.513Z,15.60
2018-11-06T17:08:09.131Z,15.60
2018-11-06T17:13:07.743Z,15.50
2018-11-06T17:18:06.605Z,15.40
2018-11-06T17:23:05.401Z,15.40
2018-11-06T17:28:04.185Z,15.30
2018-11-06T17:33:02.796Z,15.30
2018-11-06T17:38:01.433Z,15.30
2018-11-06T17:43:00.056Z,15.30
2018-11-06T17:47:58.740Z,15.20
2018-11-06T17:52:58.224Z,15.10
2018-11-06T17:57:57.063Z,15.10
2018-11-06T18:02:55.680Z,15.00
2018-11-06T18:07:54.446Z,14.90
2018-11-06T18:12:53.199Z,14.90
2018-11-06T18:17:52.189Z,14.80
2018-11-06T18:22:50.615Z,14.70
2018-11-06T18:27:49.317Z,14.70
2018-11-06T18:32:47.944Z,14.60
2018-11-06T18:37:47.737Z,14.50
2018-11-06T18:42:47.196Z,14.40
2018-11-06T18:47:45.931Z,14.40
2018-11-06T18:52:45.861Z,14.30
2018-11-06T18:57:44.619Z,14.30
2018-11-06T19:02:44.559Z,14.20
2018-11-06T19:07:43.182Z,14.20
2018-11-06T19:12:42.077Z,14.10
2018-11-06T19:17:41.196Z,14.10
2018-11-06T19:22:39.921Z,14.00
2018-11-06T19:27:38.985Z,14.00
2018-11-06T19:32:37.798Z,14.00
2018-11-06T19:37:36.453Z,14.00
2018-11-06T19:42:35.128Z,13.90
2018-11-06T19:47:33.695Z,13.80
2018-11-06T19:52:32.337Z,13.80
2018-11-06T19:57:30.998Z,13.70
2018-11-06T20:02:29.632Z,13.70
2018-11-06T20:07:28.287Z,13.60
2018-11-06T20:12:27.348Z,13.60
2018-11-06T20:17:26.036Z,13.60
2018-11-06T20:22:24.624Z,13.50
2018-11-06T20:27:23.355Z,13.40
2018-11-06T20:32:21.905Z,13.30
2018-11-06T20:37:20.597Z,13.20
2018-11-06T20:42:19.195Z,13.20
2018-11-06T20:47:17.904Z,13.10
2018-11-06T20:52:16.537Z,13.10
2018-11-06T20:57:15.160Z,13.00
2018-11-06T21:07:21.364Z,13.00
2018-11-06T21:12:20.024Z,13.00
2018-11-06T21:17:18.666Z,12.90
2018-11-06T21:22:17.317Z,12.90
2018-11-06T21:27:16.024Z,12.80
2018-11-06T21:32:14.583Z,12.80
2018-11-06T21:37:13.207Z,12.70
2018-11-06T21:42:11.867Z,12.70
2018-11-06T21:47:10.513Z,12.70
2018-11-06T21:52:09.230Z,12.70
2018-11-06T21:57:07.969Z,12.70
2018-11-06T22:02:06.636Z,12.60
2018-11-06T22:07:05.432Z,12.50
2018-11-06T22:12:04.463Z,12.50
2018-11-06T22:17:03.111Z,12.60
2018-11-06T22:22:01.909Z,12.60
2018-11-06T22:27:00.475Z,12.60
2018-11-06T22:31:59.857Z,12.60
2018-11-06T22:36:58.603Z,12.60
2018-11-06T22:41:57.208Z,12.60
2018-11-06T22:46:55.827Z,12.50
2018-11-06T22:51:54.443Z,12.50
2018-11-06T22:56:53.058Z,12.50
2018-11-06T23:01:51.680Z,12.40
2018-11-06T23:06:50.512Z,12.40
2018-11-06T23:11:49.155Z,12.40
2018-11-06T23:16:47.808Z,12.40
2018-11-06T23:21:46.464Z,12.40
2018-11-06T23:26:45.093Z,12.30
2018-11-06T23:31:43.805Z,12.40
2018-11-06T23:36:42.407Z,12.30
2018-11-06T23:41:41.036Z,12.30
2018-11-06T23:46:39.672Z,12.30
2018-11-06T23:51:38.327Z,12.30
2018-11-06T23:56:36.994Z,12.30
